Terminal Aerodrome Forecast
Issued by NWS

Home | Current Version | Previous Version | Text Only | Print | Product List | Glossary On
Versions: 1 2 3 4 5 6 7 8 9 10 11 12 13 14 15 16 17 18
764
FTUS43 KGRB 270254 AAA
TAFMTW
TAF AMD
KMTW 270254Z 2703/2724 29008KT P6SM -SHRA BKN060
      TEMPO 2703/2704 34020G30KT
     FM270400 33005KT P6SM SCT100
     FM271500 23004KT P6SM SCT035 BKN070
      TEMPO 2716/2720 5SM -RA BR BKN030
     FM272000 07008KT 4SM -SHRA SCT008 OVC015
      TEMPO 2720/2724 2SM -RA BR BKN008=

USA.gov is the U.S. government's official web portal to all federal, state and local government web resources and services.